Anawalt, West Virginia
Current Conditions -  °F | °C
As of 12:52 PM on Tuesday 21 Oct 2014 (Local Time) from KBLF Reporting Station
Overcast Overcast  
Wind Chill: 52°   Ceiling: 2300
Heat Index: 52°   Visibility: 10mi
Dew Point: 43°   Wind: 10mph
Humidity: 71%   Direction: 310°NW
Pressure: 29.97"   Gusts: 26mph
Location:  37.34°N, 81.44°W
Report Text: KBLF 211652Z AUTO 31009G23KT 10SM SCT014 BKN023 OVC047 11/06 A2997 RMK AO2 SLP135 T01110061
Loading
Personal Weather Stations






























Interactive Weather Map New forecast layout! Learn more

10-Day Weather Forecast

Advertisements
Track Severe Weather on mobile